createdAt,value
2023-04-10T00:00:38.007Z,17.30
2023-04-10T00:03:05.536Z,20.40
2023-04-10T00:05:32.799Z,16.45
2023-04-10T00:08:00.277Z,17.48
2023-04-10T00:10:29.312Z,17.35
2023-04-10T00:12:56.528Z,15.63
2023-04-10T00:15:23.902Z,16.95
2023-04-10T00:17:54.935Z,13.50
2023-04-10T00:20:23.561Z,17.35
2023-04-10T00:22:50.680Z,13.57
2023-04-10T00:25:17.894Z,14.48
2023-04-10T00:27:45.012Z,15.77
2023-04-10T00:30:12.171Z,15.32
2023-04-10T00:32:39.161Z,18.45
2023-04-10T00:35:08.349Z,16.63
2023-04-10T00:37:35.683Z,14.25
2023-04-10T00:40:03.296Z,16.80
2023-04-10T00:42:30.376Z,20.38
2023-04-10T00:44:57.250Z,20.23
2023-04-10T00:47:25.599Z,15.85
2023-04-10T00:49:53.723Z,17.58
2023-04-10T00:52:20.858Z,16.35
2023-04-10T00:54:48.101Z,16.15
2023-04-10T00:57:15.464Z,14.35
2023-04-10T00:59:42.506Z,14.65
2023-04-10T01:02:11.194Z,16.27
2023-04-10T01:04:38.788Z,14.75
2023-04-10T01:07:51.507Z,15.45
2023-04-10T01:11:02.889Z,12.82
2023-04-10T01:14:10.953Z,14.07
2023-04-10T01:17:07.957Z,19.67
2023-04-10T01:20:07.744Z,15.57
2023-04-10T01:23:19.461Z,16.05
2023-04-10T01:26:05.476Z,13.50
2023-04-10T01:29:08.072Z,17.13
2023-04-10T01:31:50.836Z,17.17
2023-04-10T01:34:27.746Z,20.15
2023-04-10T01:37:07.410Z,15.20
2023-04-10T01:39:42.590Z,15.77
2023-04-10T01:42:14.737Z,17.83
2023-04-10T01:44:46.922Z,17.50
2023-04-10T01:47:18.153Z,15.95
2023-04-10T01:49:48.847Z,16.63
2023-04-10T01:52:17.775Z,17.42
2023-04-10T01:54:48.410Z,16.98
2023-04-10T01:57:17.252Z,18.33
2023-04-10T01:59:44.522Z,15.38
2023-04-10T02:02:12.257Z,21.00
2023-04-10T02:04:39.506Z,19.50
2023-04-10T02:07:19.903Z,18.10
2023-04-10T02:10:22.200Z,20.42
2023-04-10T02:13:05.415Z,16.23
2023-04-10T02:15:36.794Z,21.15
2023-04-10T02:18:06.474Z,15.50
2023-04-10T02:20:34.380Z,17.60
2023-04-10T02:23:03.749Z,18.30
2023-04-10T02:25:35.969Z,20.58
2023-04-10T02:28:07.908Z,19.52
2023-04-10T02:30:35.790Z,19.05
2023-04-10T02:33:02.842Z,17.15
2023-04-10T02:35:29.915Z,18.27
2023-04-10T02:37:57.035Z,18.10
2023-04-10T02:40:24.148Z,17.58
2023-04-10T02:42:51.160Z,18.88
2023-04-10T02:45:18.250Z,17.35
2023-04-10T02:47:45.468Z,16.17
2023-04-10T02:50:12.365Z,19.85
2023-04-10T02:52:40.410Z,19.35
2023-04-10T02:55:07.872Z,15.75
2023-04-10T02:57:35.485Z,22.52
2023-04-10T03:00:05.059Z,19.98
2023-04-10T03:02:32.641Z,16.73
2023-04-10T03:05:02.344Z,15.90
2023-04-10T03:07:29.322Z,16.80
2023-04-10T03:09:56.260Z,20.05
2023-04-10T03:12:23.349Z,14.43
2023-04-10T03:14:50.235Z,19.08
2023-04-10T03:17:17.277Z,17.00
2023-04-10T03:19:44.204Z,21.00
2023-04-10T03:22:11.421Z,20.20
2023-04-10T03:24:38.312Z,20.42
2023-04-10T03:27:05.379Z,21.75
2023-04-10T03:29:32.314Z,20.63
2023-04-10T03:31:59.285Z,18.80
2023-04-10T03:34:26.286Z,21.42
2023-04-10T03:36:53.121Z,19.30
2023-04-10T03:39:20.637Z,20.73
2023-04-10T03:41:47.545Z,24.40
2023-04-10T03:44:14.475Z,21.52
2023-04-10T03:46:41.477Z,19.02
2023-04-10T03:49:08.473Z,18.13
2023-04-10T03:51:35.439Z,20.10
2023-04-10T03:54:02.433Z,19.95
2023-04-10T03:56:29.421Z,21.05
2023-04-10T03:58:56.361Z,23.40
2023-04-10T04:01:23.457Z,25.35
2023-04-10T04:03:50.590Z,18.85
2023-04-10T04:06:17.626Z,22.58
2023-04-10T04:08:44.551Z,23.33
2023-04-10T04:11:11.575Z,24.30
2023-04-10T04:13:38.592Z,23.70
2023-04-10T04:16:06.690Z,18.92
2023-04-10T04:18:33.586Z,20.98
2023-04-10T04:21:00.644Z,21.83
2023-04-10T04:23:27.561Z,22.98
2023-04-10T04:25:56.815Z,24.20
2023-04-10T04:28:23.771Z,25.00
2023-04-10T04:30:50.884Z,24.77
2023-04-10T04:33:17.889Z,23.15
2023-04-10T04:35:44.848Z,27.63
2023-04-10T04:38:11.799Z,25.20
2023-04-10T04:40:38.763Z,25.00
2023-04-10T04:43:05.761Z,28.83
2023-04-10T04:45:32.720Z,28.60
2023-04-10T04:47:59.587Z,25.73
2023-04-10T04:50:26.622Z,26.35
2023-04-10T04:52:53.551Z,21.65
2023-04-10T04:55:20.548Z,24.38
2023-04-10T04:57:47.540Z,24.48
2023-04-10T05:00:14.829Z,25.00
2023-04-10T05:02:41.830Z,23.17
2023-04-10T05:05:09.239Z,23.02
2023-04-10T05:07:36.338Z,29.33
2023-04-10T05:10:03.442Z,22.08
2023-04-10T05:12:30.382Z,20.80
2023-04-10T05:14:57.350Z,22.88
2023-04-10T05:17:24.358Z,22.55
2023-04-10T05:19:51.410Z,22.17
2023-04-10T05:22:18.693Z,21.35
2023-04-10T05:24:45.965Z,22.95
2023-04-10T05:27:12.963Z,23.33
2023-04-10T05:29:39.901Z,25.97
2023-04-10T05:32:06.938Z,22.52
2023-04-10T05:34:33.868Z,26.63
2023-04-10T05:37:00.837Z,26.93
2023-04-10T05:39:27.797Z,20.93
2023-04-10T05:41:54.735Z,20.63
2023-04-10T05:44:21.660Z,25.47
2023-04-10T05:46:48.739Z,25.80
2023-04-10T05:49:16.780Z,19.40
2023-04-10T05:51:43.779Z,25.70
2023-04-10T05:54:10.736Z,22.10
2023-04-10T05:56:37.611Z,23.50
2023-04-10T05:59:04.608Z,19.40
2023-04-10T06:01:31.571Z,18.73
2023-04-10T06:03:58.588Z,21.20
2023-04-10T06:06:26.719Z,18.47
2023-04-10T06:08:53.871Z,23.10
2023-04-10T06:11:21.748Z,21.03
2023-04-10T06:13:48.707Z,18.70
2023-04-10T06:16:16.318Z,21.53
2023-04-10T06:18:43.793Z,23.77
2023-04-10T06:21:10.654Z,25.73
2023-04-10T06:23:37.769Z,23.83
2023-04-10T06:26:05.257Z,25.13
2023-04-10T06:28:32.275Z,28.43
2023-04-10T06:31:03.172Z,26.10
2023-04-10T06:33:30.501Z,29.87
2023-04-10T06:35:58.557Z,27.03
2023-04-10T06:38:25.624Z,26.60
2023-04-10T06:40:52.602Z,28.67
2023-04-10T06:43:19.540Z,29.00
2023-04-10T06:45:46.848Z,33.10
2023-04-10T06:48:14.461Z,30.97
2023-04-10T06:50:41.382Z,30.83
2023-04-10T06:53:08.394Z,28.23
2023-04-10T06:55:35.291Z,29.77
2023-04-10T06:58:02.223Z,26.97
2023-04-10T07:00:30.531Z,26.17
2023-04-10T07:02:57.749Z,28.50
2023-04-10T07:05:24.815Z,23.23
2023-04-10T07:07:51.844Z,25.40
2023-04-10T07:10:18.937Z,24.53
2023-04-10T07:12:46.060Z,26.20
2023-04-10T07:15:13.042Z,18.03
2023-04-10T07:17:40.407Z,14.13
2023-04-10T07:20:08.536Z,15.30
2023-04-10T07:22:35.568Z,14.90
2023-04-10T07:25:02.735Z,17.10
2023-04-10T07:27:29.968Z,13.83
2023-04-10T07:29:56.970Z,15.77
2023-04-10T07:32:24.486Z,12.37
2023-04-10T07:34:51.656Z,13.80
2023-04-10T07:37:18.581Z,14.40
2023-04-10T07:39:45.634Z,13.97
2023-04-10T07:42:14.643Z,13.40
2023-04-10T07:44:41.547Z,14.83
2023-04-10T07:47:09.457Z,12.63
2023-04-10T07:49:36.709Z,13.97
2023-04-10T07:52:03.743Z,13.03
2023-04-10T07:54:34.518Z,12.87
2023-04-10T07:57:01.533Z,13.23
2023-04-10T07:59:29.774Z,14.50
2023-04-10T08:03:47.457Z,12.50
2023-04-10T08:06:14.647Z,14.20
2023-04-10T08:08:42.581Z,13.03
2023-04-10T08:11:32.041Z,11.90
2023-04-10T08:14:02.635Z,13.27
2023-04-10T08:16:36.973Z,12.10
2023-04-10T08:19:04.034Z,12.10
2023-04-10T08:21:32.430Z,14.07
2023-04-10T08:24:02.687Z,11.60
2023-04-10T08:26:30.505Z,12.30
2023-04-10T08:29:00.728Z,12.67
2023-04-10T08:31:29.874Z,12.60
2023-04-10T08:33:57.818Z,11.73
2023-04-10T08:36:26.519Z,11.70
2023-04-10T08:38:53.428Z,11.57
2023-04-10T08:41:20.694Z,9.87
2023-04-10T08:43:49.481Z,11.97
2023-04-10T08:46:16.746Z,8.93
2023-04-10T08:49:05.187Z,8.70
2023-04-10T08:51:58.632Z,10.47
2023-04-10T08:54:34.835Z,9.93
2023-04-10T08:57:02.576Z,9.50
2023-04-10T08:59:31.397Z,11.00
2023-04-10T09:01:59.668Z,9.70
2023-04-10T09:04:27.531Z,9.87
2023-04-10T09:06:54.890Z,10.23
2023-04-10T09:09:21.828Z,7.60
2023-04-10T09:12:01.227Z,10.60
2023-04-10T09:14:37.234Z,12.53
2023-04-10T09:17:30.547Z,10.00
2023-04-10T09:19:57.473Z,10.90
2023-04-10T09:22:36.018Z,9.43
2023-04-10T09:25:04.845Z,10.20
2023-04-10T09:27:35.990Z,9.60
2023-04-10T09:30:05.316Z,8.13
2023-04-10T09:32:46.525Z,12.33
2023-04-10T09:35:15.908Z,11.90
2023-04-10T09:37:48.985Z,9.47
2023-04-10T09:40:26.075Z,9.50
2023-04-10T09:42:56.271Z,9.10
2023-04-10T09:45:26.273Z,8.43
2023-04-10T09:48:10.037Z,9.70
2023-04-10T09:50:44.780Z,11.60
2023-04-10T09:53:19.478Z,9.73
2023-04-10T09:55:49.676Z,8.53
2023-04-10T09:58:19.304Z,9.10
2023-04-10T10:00:49.896Z,8.33
2023-04-10T10:03:22.222Z,8.40
2023-04-10T10:05:51.876Z,8.60
2023-04-10T10:08:19.793Z,8.47
2023-04-10T10:10:56.693Z,9.90
2023-04-10T10:13:48.923Z,9.53
2023-04-10T10:16:29.287Z,9.20
2023-04-10T10:19:16.644Z,8.40
2023-04-10T10:21:46.064Z,11.07
2023-04-10T10:24:15.827Z,9.37
2023-04-10T10:26:46.926Z,9.40
2023-04-10T10:29:17.845Z,10.80
2023-04-10T10:31:47.040Z,8.47
2023-04-10T10:34:16.542Z,14.43
2023-04-10T10:36:43.584Z,9.60
2023-04-10T10:39:54.309Z,8.47
2023-04-10T10:42:53.413Z,8.33
2023-04-10T10:45:34.651Z,8.80
2023-04-10T10:48:01.750Z,8.63
2023-04-10T10:50:58.991Z,7.33
2023-04-10T10:53:45.196Z,6.77
2023-04-10T10:56:23.781Z,7.77
2023-04-10T10:58:58.627Z,7.23
2023-04-10T11:01:26.177Z,7.20
2023-04-10T11:03:53.354Z,6.70
2023-04-10T11:06:43.578Z,7.47
2023-04-10T11:09:46.340Z,7.33
2023-04-10T11:12:13.414Z,7.23
2023-04-10T11:14:44.275Z,6.50
2023-04-10T11:17:11.891Z,6.47
2023-04-10T11:20:11.221Z,7.13
2023-04-10T11:23:12.364Z,7.07
2023-04-10T11:25:55.560Z,7.57
2023-04-10T11:28:49.081Z,7.07
2023-04-10T11:31:24.007Z,6.67
2023-04-10T11:33:59.648Z,6.83
2023-04-10T11:36:27.964Z,6.90
2023-04-10T11:38:56.450Z,7.10
2023-04-10T11:41:42.589Z,6.87
2023-04-10T11:44:17.509Z,6.43
2023-04-10T11:46:47.200Z,7.10
2023-04-10T11:49:27.445Z,6.73
2023-04-10T11:51:57.141Z,8.10
2023-04-10T11:54:30.840Z,9.10
2023-04-10T11:57:07.503Z,10.47
2023-04-10T11:59:35.468Z,7.03
2023-04-10T12:02:09.364Z,7.00
2023-04-10T12:04:41.558Z,6.43
2023-04-10T12:07:10.966Z,7.83
2023-04-10T12:09:38.004Z,6.83
2023-04-10T12:12:08.160Z,7.73
2023-04-10T12:14:40.758Z,6.77
2023-04-10T12:17:12.756Z,6.40
2023-04-10T12:19:41.359Z,7.13
2023-04-10T12:22:12.674Z,6.07
2023-04-10T12:24:49.609Z,5.97
2023-04-10T12:27:34.497Z,6.40
2023-04-10T12:30:08.643Z,5.93
2023-04-10T12:32:35.932Z,6.00
2023-04-10T12:35:02.924Z,5.67
2023-04-10T12:37:54.410Z,6.47
2023-04-10T12:40:21.540Z,5.73
2023-04-10T12:42:48.523Z,5.93
2023-04-10T12:45:15.606Z,7.50
2023-04-10T12:47:51.594Z,5.03
2023-04-10T12:50:24.101Z,4.97
2023-04-10T12:53:08.007Z,4.93
2023-04-10T12:55:35.170Z,5.07
2023-04-10T12:58:18.501Z,4.23
2023-04-10T13:00:46.826Z,4.80
2023-04-10T13:03:13.902Z,4.47
2023-04-10T13:05:41.000Z,5.57
2023-04-10T13:08:08.095Z,5.20
2023-04-10T13:10:37.996Z,6.37
2023-04-10T13:13:06.909Z,5.47
2023-04-10T13:15:34.651Z,5.30
2023-04-10T13:18:04.331Z,5.23
2023-04-10T13:20:36.211Z,5.30
2023-04-10T13:23:03.996Z,5.60
2023-04-10T13:25:34.715Z,4.80
2023-04-10T13:28:02.178Z,5.77
2023-04-10T13:30:30.291Z,6.10
2023-04-10T13:32:57.729Z,5.40
2023-04-10T13:35:24.709Z,5.80
2023-04-10T13:37:53.981Z,5.60
2023-04-10T13:40:21.823Z,6.10
2023-04-10T13:42:49.089Z,5.57
2023-04-10T13:45:16.365Z,5.13
2023-04-10T13:47:44.134Z,5.63
2023-04-10T13:50:11.769Z,5.90
2023-04-10T13:52:38.694Z,4.60
2023-04-10T13:55:07.236Z,4.90
2023-04-10T13:57:34.253Z,5.50
2023-04-10T14:00:01.434Z,6.50
2023-04-10T14:02:28.370Z,5.97
2023-04-10T14:04:55.369Z,5.97
2023-04-10T14:07:22.390Z,6.00
2023-04-10T14:09:49.350Z,6.07
2023-04-10T14:12:16.447Z,5.73
2023-04-10T14:14:45.392Z,5.13
2023-04-10T14:17:12.323Z,5.20
2023-04-10T14:19:39.715Z,5.73
2023-04-10T14:22:06.666Z,5.27
2023-04-10T14:24:33.975Z,5.80
2023-04-10T14:27:01.817Z,5.90
2023-04-10T14:31:59.744Z,4.87
2023-04-10T14:34:26.920Z,5.20
2023-04-10T14:36:55.841Z,5.83
2023-04-10T14:39:24.729Z,5.83
2023-04-10T14:41:51.990Z,5.37
2023-04-10T14:44:19.047Z,5.37
2023-04-10T14:46:46.119Z,4.67
2023-04-10T14:49:14.942Z,5.43
2023-04-10T14:51:46.148Z,6.00
2023-04-10T14:54:13.128Z,5.77
2023-04-10T14:56:40.231Z,5.80
2023-04-10T14:59:07.174Z,5.33
2023-04-10T15:01:35.763Z,6.00
2023-04-10T15:04:03.014Z,4.80
2023-04-10T15:06:32.228Z,9.40
2023-04-10T15:08:59.395Z,5.40
2023-04-10T15:11:27.094Z,5.90
2023-04-10T15:13:54.206Z,5.27
2023-04-10T15:16:21.378Z,5.77
2023-04-10T15:18:49.291Z,5.87
2023-04-10T15:21:17.595Z,5.40
2023-04-10T15:23:44.725Z,6.07
2023-04-10T15:26:14.064Z,5.30
2023-04-10T15:28:45.476Z,7.17
2023-04-10T15:31:12.478Z,6.10
2023-04-10T15:33:40.184Z,5.37
2023-04-10T15:36:09.051Z,5.87
2023-04-10T15:38:36.276Z,6.10
2023-04-10T15:41:13.491Z,5.67
2023-04-10T15:43:42.324Z,6.00
2023-04-10T15:46:09.401Z,5.20
2023-04-10T15:48:36.726Z,5.67
2023-04-10T15:51:06.285Z,6.30
2023-04-10T15:53:35.530Z,6.47
2023-04-10T15:56:05.740Z,5.90
2023-04-10T15:58:33.974Z,6.47
2023-04-10T16:01:02.040Z,5.27
2023-04-10T16:03:30.645Z,6.53
2023-04-10T16:05:58.221Z,6.33
2023-04-10T16:08:26.110Z,7.00
2023-04-10T16:10:53.889Z,5.47
2023-04-10T16:13:20.928Z,5.50
2023-04-10T16:15:49.193Z,7.40
2023-04-10T16:18:16.161Z,6.13
2023-04-10T16:20:43.466Z,6.03
2023-04-10T16:23:10.497Z,5.87
2023-04-10T16:25:37.437Z,5.23
2023-04-10T16:28:08.105Z,4.93
2023-04-10T16:30:36.342Z,4.77
2023-04-10T16:33:04.022Z,4.97
2023-04-10T16:35:31.311Z,4.73
2023-04-10T16:37:58.339Z,5.30
2023-04-10T16:40:32.701Z,5.53
2023-04-10T16:43:01.573Z,6.13
2023-04-10T16:45:28.629Z,5.57
2023-04-10T16:47:55.826Z,5.80
2023-04-10T16:50:22.951Z,4.10
2023-04-10T16:52:50.088Z,4.80
2023-04-10T16:55:17.165Z,5.03
2023-04-10T16:57:44.173Z,4.57
2023-04-10T17:00:11.977Z,4.97
2023-04-10T17:02:39.047Z,5.87
2023-04-10T17:05:06.463Z,5.33
2023-04-10T17:07:34.347Z,5.37
2023-04-10T17:10:01.354Z,4.97
2023-04-10T17:12:28.317Z,5.60
2023-04-10T17:14:55.260Z,6.33
2023-04-10T17:17:22.361Z,5.33
2023-04-10T17:19:49.466Z,6.67
2023-04-10T17:22:16.562Z,6.00
2023-04-10T17:24:45.188Z,6.50
2023-04-10T17:27:13.713Z,5.17
2023-04-10T17:29:41.296Z,5.37
2023-04-10T17:32:09.464Z,4.63
2023-04-10T17:34:36.407Z,8.00
2023-04-10T17:37:03.510Z,5.37
2023-04-10T17:39:30.596Z,5.20
2023-04-10T17:41:57.538Z,5.77
2023-04-10T17:44:24.616Z,5.07
2023-04-10T17:46:53.453Z,6.07
2023-04-10T17:49:22.066Z,5.93
2023-04-10T17:51:49.852Z,5.27
2023-04-10T17:54:16.855Z,5.03
2023-04-10T17:56:43.916Z,6.20
2023-04-10T17:59:10.983Z,5.87
2023-04-10T18:01:38.155Z,6.20
2023-04-10T18:04:05.558Z,5.63
2023-04-10T18:06:32.710Z,6.37
2023-04-10T18:08:59.703Z,5.00
2023-04-10T18:11:27.180Z,4.20
2023-04-10T18:13:54.143Z,5.70
2023-04-10T18:16:21.134Z,7.67
2023-04-10T18:18:48.079Z,5.63
2023-04-10T18:21:15.921Z,5.10
2023-04-10T18:23:44.390Z,6.90
2023-04-10T18:26:12.956Z,7.03
2023-04-10T18:28:41.878Z,5.50
2023-04-10T18:31:08.918Z,6.20
2023-04-10T18:33:36.089Z,5.73
2023-04-10T18:36:03.337Z,5.43
2023-04-10T18:38:30.694Z,5.93
2023-04-10T18:40:58.368Z,6.90
2023-04-10T18:43:29.275Z,7.67
2023-04-10T18:45:57.849Z,6.30
2023-04-10T18:48:24.974Z,7.53
2023-04-10T18:50:53.240Z,6.97
2023-04-10T18:53:22.243Z,6.47
2023-04-10T18:55:54.159Z,6.30
2023-04-10T18:58:22.621Z,6.07
2023-04-10T19:00:49.944Z,5.37
2023-04-10T19:03:17.061Z,6.13
2023-04-10T19:05:44.338Z,5.70
2023-04-10T19:08:15.582Z,5.73
2023-04-10T19:10:43.178Z,8.30
2023-04-10T19:13:12.348Z,5.97
2023-04-10T19:15:46.441Z,7.27
2023-04-10T19:18:15.057Z,5.37
2023-04-10T19:20:52.558Z,5.47
2023-04-10T19:23:21.311Z,5.10
2023-04-10T19:25:55.093Z,6.00
2023-04-10T19:28:24.210Z,5.97
2023-04-10T19:30:52.050Z,6.77
2023-04-10T19:33:21.945Z,6.70
2023-04-10T19:35:48.971Z,6.47
2023-04-10T19:38:15.997Z,5.60
2023-04-10T19:40:44.365Z,5.70
2023-04-10T19:43:12.187Z,5.73
2023-04-10T19:45:40.051Z,5.30
2023-04-10T19:48:10.053Z,5.63
2023-04-10T19:50:37.130Z,6.63
2023-04-10T19:53:04.663Z,6.60
2023-04-10T19:55:31.776Z,6.00
2023-04-10T19:57:58.810Z,6.07
2023-04-10T20:00:25.891Z,6.00
2023-04-10T20:02:52.993Z,6.60
2023-04-10T20:05:20.182Z,7.00
2023-04-10T20:07:47.201Z,7.40
2023-04-10T20:10:14.130Z,6.23
2023-04-10T20:12:41.173Z,6.37
2023-04-10T20:15:09.356Z,5.50
2023-04-10T20:17:36.341Z,7.07
2023-04-10T20:20:03.740Z,7.77
2023-04-10T20:22:32.162Z,6.73
2023-04-10T20:24:59.037Z,5.93
2023-04-10T20:27:26.370Z,8.80
2023-04-10T20:29:53.293Z,8.17
2023-04-10T20:32:20.492Z,7.00
2023-04-10T20:34:47.505Z,6.43
2023-04-10T20:37:18.546Z,8.40
2023-04-10T20:39:45.456Z,6.70
2023-04-10T20:42:12.424Z,5.73
2023-04-10T20:44:39.319Z,7.33
2023-04-10T20:47:06.676Z,6.47
2023-04-10T20:49:34.268Z,6.70
2023-04-10T20:52:01.448Z,7.77
2023-04-10T20:54:28.324Z,6.73
2023-04-10T20:56:56.831Z,8.60
2023-04-10T20:59:23.801Z,6.67
2023-04-10T21:01:50.797Z,7.27
2023-04-10T21:04:18.072Z,7.07
2023-04-10T21:06:45.250Z,9.23
2023-04-10T21:09:12.196Z,7.73
2023-04-10T21:11:39.034Z,6.10
2023-04-10T21:14:05.933Z,9.13
2023-04-10T21:16:34.676Z,7.80
2023-04-10T21:19:01.777Z,6.03
2023-04-10T21:21:30.204Z,6.83
2023-04-10T21:23:57.089Z,9.20
2023-04-10T21:26:24.048Z,8.97
2023-04-10T21:28:51.028Z,7.23
2023-04-10T21:31:17.947Z,7.70
2023-04-10T21:33:45.645Z,7.80
2023-04-10T21:36:12.633Z,7.90
2023-04-10T21:38:40.706Z,7.93
2023-04-10T21:41:07.910Z,9.00
2023-04-10T21:43:35.216Z,9.70
2023-04-10T21:46:03.044Z,9.50
2023-04-10T21:48:30.338Z,7.70
2023-04-10T21:50:57.352Z,8.23
2023-04-10T21:53:24.272Z,7.13
2023-04-10T21:55:52.158Z,7.00
2023-04-10T21:58:19.074Z,7.97
2023-04-10T22:00:47.305Z,6.57
2023-04-10T22:03:16.164Z,8.27
2023-04-10T22:05:43.477Z,8.00
2023-04-10T22:08:10.652Z,12.40
2023-04-10T22:10:37.988Z,8.77
2023-04-10T22:13:04.976Z,8.20
2023-04-10T22:15:32.010Z,10.30
2023-04-10T22:17:59.066Z,9.80
2023-04-10T22:20:25.980Z,9.80
2023-04-10T22:22:53.119Z,10.63
2023-04-10T22:25:20.243Z,8.90
2023-04-10T22:27:48.347Z,7.27
2023-04-10T22:30:15.784Z,7.67
2023-04-10T22:32:42.750Z,9.33
2023-04-10T22:35:09.790Z,9.30
2023-04-10T22:37:36.751Z,7.90
2023-04-10T22:40:05.881Z,9.93
2023-04-10T22:42:32.770Z,8.10
2023-04-10T22:44:59.871Z,9.07
2023-04-10T22:47:26.963Z,9.60
2023-04-10T22:49:54.135Z,8.63
2023-04-10T22:52:21.317Z,9.53
2023-04-10T22:54:48.244Z,7.90
2023-04-10T22:57:15.223Z,7.90
2023-04-10T22:59:42.228Z,13.60
2023-04-10T23:02:09.271Z,8.33
2023-04-10T23:04:36.448Z,8.50
2023-04-10T23:07:03.387Z,10.93
2023-04-10T23:09:30.330Z,8.37
2023-04-10T23:11:57.256Z,10.00
2023-04-10T23:14:24.214Z,8.87
2023-04-10T23:16:51.174Z,9.87
2023-04-10T23:19:18.852Z,9.30
2023-04-10T23:21:45.802Z,8.03
2023-04-10T23:24:12.664Z,9.83
2023-04-10T23:26:39.535Z,10.60
2023-04-10T23:29:06.499Z,8.77
2023-04-10T23:31:33.362Z,9.93
2023-04-10T23:34:00.278Z,9.27
2023-04-10T23:36:27.250Z,9.10
2023-04-10T23:38:54.534Z,8.90
2023-04-10T23:41:22.185Z,10.20
2023-04-10T23:43:49.374Z,10.00
2023-04-10T23:46:16.415Z,8.10
2023-04-10T23:48:43.443Z,9.13
2023-04-10T23:51:10.450Z,9.90
2023-04-10T23:53:37.467Z,8.70
2023-04-10T23:56:04.891Z,8.63
2023-04-10T23:58:31.804Z,9.30
